Check out our new BloomSky Weather System.

Active alerts


No alerts


Thunder radar  blitzortung!


Rain radar more information rain snow radar


Visit our other weather sites:

Template documentation
and downloads

And another site



Weather Underground History page Text

Daily Summary for November 20, 2017 Units:  English    Metric   Both
« Previous Day
Next Day »
Daily Weekly Monthly Yearly Custom
  High: Low: Average:
Temperature: 68.5 °F 41.2 °F 54.8 °F
Dew Point: 51.1 °F 37.8 °F 45.2 °F
Humidity: 95 % 43 % 73 %
Wind Speed: 9.0 mph 0.0 mph 1.5 mph
Wind Gust: 13.0 mph - -
Wind:- - SE
Pressure: 30.24 in 30.01 in -
Precipitation: 0.00 in    
Historical Graphs
 
 
Tabular Data for November 20, 2017
Time Temperature Dew Point Pressure Wind Wind Speed Wind Gust Humidity Rainfall Rate (Hourly)
00:09 43.3 °F 40.8 °F 30.21 in Calm     91 % 0.00 in
00:14 43.5 °F 41.4 °F 30.21 in Calm     92 % 0.00 in
00:19 43.7 °F 41.7 °F 30.21 in Calm     93 % 0.00 in
00:24 43.7 °F 41.5 °F 30.21 in Calm     92 % 0.00 in
00:29 43.5 °F 41.4 °F 30.21 in Calm     92 % 0.00 in
00:39 43.5 °F 41.7 °F 30.22 in Calm     93 % 0.00 in
00:44 43.5 °F 41.7 °F 30.22 in Calm     93 % 0.00 in
00:49 43.5 °F 41.7 °F 30.22 in Calm     93 % 0.00 in
00:54 43.3 °F 41.2 °F 30.22 in Calm     92 % 0.00 in
00:59 43.3 °F 41.5 °F 30.22 in Calm     93 % 0.00 in
01:04 43.2 °F 41.4 °F 30.21 in Calm     93 % 0.00 in
01:09 43.2 °F 41.4 °F 30.22 in Calm     93 % 0.00 in
01:14 43.2 °F 41.4 °F 30.22 in Calm     93 % 0.00 in
01:24 43.2 °F 41.5 °F 30.22 in Calm     94 % 0.00 in
01:44 43.5 °F 41.9 °F 30.22 in Calm     94 % 0.00 in
01:49 43.7 °F 42.1 °F 30.22 in Calm   1.0 mph 94 % 0.00 in
01:54 43.7 °F 41.7 °F 30.22 in Calm   1.0 mph 93 % 0.00 in
01:59 43.5 °F 41.7 °F 30.21 in Calm   1.0 mph 93 % 0.00 in
02:09 43.5 °F 41.9 °F 30.21 in Calm     94 % 0.00 in
02:19 43.2 °F 41.4 °F 30.21 in Calm     93 % 0.00 in
02:34 43.2 °F 41.5 °F 30.21 in Calm     94 % 0.00 in
02:39 43.2 °F 41.5 °F 30.21 in Calm     94 % 0.00 in
02:44 43.0 °F 41.4 °F 30.20 in Calm   1.0 mph 94 % 0.00 in
02:55 43.0 °F 41.4 °F 30.20 in Calm   1.0 mph 94 % 0.00 in
03:00 42.6 °F 41.0 °F 30.20 in Calm     94 % 0.00 in
03:05 42.6 °F 41.0 °F 30.20 in Calm     94 % 0.00 in
03:10 42.6 °F 41.0 °F 30.20 in Calm     94 % 0.00 in
03:15 42.8 °F 41.2 °F 30.20 in Calm     94 % 0.00 in
03:20 42.8 °F 41.2 °F 30.21 in Calm     94 % 0.00 in
03:25 42.6 °F 41.0 °F 30.20 in Calm     94 % 0.00 in
03:30 42.6 °F 41.0 °F 30.20 in Calm     94 % 0.00 in
03:35 42.4 °F 40.8 °F 30.20 in Calm     94 % 0.00 in
03:40 42.4 °F 40.8 °F 30.20 in Calm     94 % 0.00 in
03:45 42.4 °F 40.8 °F 30.20 in Calm     94 % 0.00 in
03:50 42.3 °F 40.6 °F 30.20 in Calm     94 % 0.00 in
04:00 42.1 °F 40.5 °F 30.21 in Calm     94 % 0.00 in
04:05 41.9 °F 40.3 °F 30.21 in Calm     94 % 0.00 in
04:10 41.7 °F 40.1 °F 30.21 in Calm     94 % 0.00 in
04:20 42.1 °F 40.5 °F 30.20 in Calm     94 % 0.00 in
04:25 42.1 °F 40.5 °F 30.19 in Calm     94 % 0.00 in
04:30 42.3 °F 40.6 °F 30.20 in Calm     94 % 0.00 in
04:35 42.3 °F 40.6 °F 30.19 in Calm     94 % 0.00 in
04:40 42.1 °F 40.5 °F 30.20 in Calm   1.0 mph 94 % 0.00 in
04:45 42.1 °F 40.5 °F 30.20 in Calm   1.0 mph 94 % 0.00 in
04:46 42.1 °F 40.5 °F 30.19 in Calm   1.0 mph 94 % 0.00 in
04:51 41.7 °F 40.1 °F 30.19 in Calm   1.0 mph 94 % 0.00 in
04:56 41.5 °F 39.9 °F 30.20 in Calm     94 % 0.00 in
05:01 41.4 °F 39.7 °F 30.19 in Calm     94 % 0.00 in
05:06 41.4 °F 40.1 °F 30.19 in Calm     95 % 0.00 in
05:11 41.4 °F 40.1 °F 30.20 in Calm     95 % 0.00 in
05:16 41.4 °F 40.1 °F 30.20 in Calm     95 % 0.00 in
05:31 41.2 °F 39.9 °F 30.20 in Calm   1.0 mph 95 % 0.00 in
05:41 41.5 °F 40.3 °F 30.19 in Calm   1.0 mph 95 % 0.00 in
05:51 41.5 °F 40.3 °F 30.20 in Calm   1.0 mph 95 % 0.00 in
05:56 41.7 °F 40.5 °F 30.20 in Calm   1.0 mph 95 % 0.00 in
06:01 41.7 °F 40.5 °F 30.21 in Calm   1.0 mph 95 % 0.00 in
06:06 41.7 °F 40.5 °F 30.20 in Calm   1.0 mph 95 % 0.00 in
06:11 42.1 °F 40.8 °F 30.20 in Calm   1.0 mph 95 % 0.00 in
06:16 42.3 °F 40.6 °F 30.20 in Calm   1.0 mph 94 % 0.00 in
06:21 42.4 °F 40.8 °F 30.20 in Calm   1.0 mph 94 % 0.00 in
06:26 42.4 °F 40.8 °F 30.20 in Calm   1.0 mph 94 % 0.00 in
06:36 43.0 °F 40.8 °F 30.21 in Calm   2.0 mph 92 % 0.00 in
06:41 43.2 °F 40.6 °F 30.21 in Calm   2.0 mph 91 % 0.00 in
06:51 43.2 °F 40.5 °F 30.21 in Calm   1.0 mph 90 % 0.00 in
07:06 43.2 °F 40.1 °F 30.21 in Calm   1.0 mph 89 % 0.00 in
07:11 43.5 °F 40.3 °F 30.21 in Calm   1.0 mph 88 % 0.00 in
07:26 43.5 °F 39.9 °F 30.21 in Calm   1.0 mph 87 % 0.00 in
07:41 44.6 °F 40.6 °F 30.21 in Calm   1.0 mph 86 % 0.00 in
07:43 44.8 °F 40.8 °F 30.21 in Calm   1.0 mph 86 % 0.00 in
07:48 45.1 °F 40.8 °F 30.21 in Calm   1.0 mph 85 % 0.00 in
07:53 45.7 °F 41.4 °F 30.22 in Calm   1.0 mph 85 % 0.00 in
07:58 46.0 °F 41.2 °F 30.21 in Calm   1.0 mph 83 % 0.00 in
08:23 48.6 °F 42.1 °F 30.23 in East 1.0 mph 2.0 mph 78 % 0.00 in
08:28 48.9 °F 42.1 °F 30.23 in Calm   2.0 mph 77 % 0.00 in
08:33 49.5 °F 42.3 °F 30.23 in SE 1.0 mph 2.0 mph 76 % 0.00 in
08:38 50.4 °F 43.7 °F 30.23 in Calm   2.0 mph 78 % 0.00 in
08:43 51.3 °F 43.0 °F 30.22 in SE 3.0 mph 3.0 mph 73 % 0.00 in
08:48 51.6 °F 42.1 °F 30.22 in SE 2.0 mph 5.0 mph 70 % 0.00 in
08:53 52.3 °F 42.8 °F 30.23 in SE 3.0 mph 5.0 mph 70 % 0.00 in
08:58 53.1 °F 42.4 °F 30.23 in Calm   5.0 mph 67 % 0.00 in
09:03 53.8 °F 42.6 °F 30.23 in Calm   4.0 mph 66 % 0.00 in
09:08 54.3 °F 42.4 °F 30.23 in East 2.0 mph 5.0 mph 64 % 0.00 in
09:13 55.2 °F 42.4 °F 30.23 in SE 4.0 mph 5.0 mph 62 % 0.00 in
09:23 55.9 °F 41.9 °F 30.23 in NE 2.0 mph 6.0 mph 59 % 0.00 in
09:34 57.2 °F 43.0 °F 30.24 in Calm   7.0 mph 59 % 0.00 in
09:39 57.7 °F 41.7 °F 30.24 in ESE 3.0 mph 7.0 mph 55 % 0.00 in
09:44 58.3 °F 43.2 °F 30.24 in South 1.0 mph 5.0 mph 57 % 0.00 in
09:49 59.0 °F 42.4 °F 30.24 in ESE 3.0 mph 5.0 mph 54 % 0.00 in
09:59 60.6 °F 41.9 °F 30.23 in ESE 3.0 mph 6.0 mph 50 % 0.00 in
10:04 60.6 °F 40.8 °F 30.24 in South 3.0 mph 6.0 mph 48 % 0.00 in
10:09 60.3 °F 39.9 °F 30.23 in East 2.0 mph 6.0 mph 47 % 0.00 in
10:19 60.3 °F 39.4 °F 30.23 in SE 2.0 mph 6.0 mph 46 % 0.00 in
10:29 59.4 °F 38.7 °F 30.23 in SSE 3.0 mph 8.0 mph 46 % 0.00 in
10:34 59.7 °F 37.8 °F 30.23 in SSE 3.0 mph 8.0 mph 44 % 0.00 in
10:44 60.6 °F 38.7 °F 30.22 in ESE 3.0 mph 7.0 mph 44 % 0.00 in
10:49 60.6 °F 39.2 °F 30.22 in SSE 2.0 mph 7.0 mph 45 % 0.00 in
10:54 61.2 °F 39.0 °F 30.22 in ENE 2.0 mph 6.0 mph 44 % 0.00 in
11:04 62.4 °F 40.3 °F 30.22 in East 1.0 mph 6.0 mph 44 % 0.00 in
11:09 63.1 °F 40.8 °F 30.22 in SE 1.0 mph 6.0 mph 44 % 0.00 in
11:14 63.7 °F 41.4 °F 30.22 in Calm   6.0 mph 44 % 0.00 in
11:29 64.2 °F 41.2 °F 30.20 in SE 1.0 mph 6.0 mph 43 % 0.00 in
11:34 64.2 °F 43.0 °F 30.20 in South 6.0 mph 7.0 mph 46 % 0.00 in
11:44 64.4 °F 42.6 °F 30.20 in SSW 7.0 mph 10.0 mph 45 % 0.00 in
11:49 64.2 °F 42.4 °F 30.19 in SSE 5.0 mph 11.0 mph 45 % 0.00 in
11:54 64.2 °F 42.4 °F 30.19 in SE 3.0 mph 11.0 mph 45 % 0.00 in
11:59 64.4 °F 44.2 °F 30.19 in South 4.0 mph 11.0 mph 48 % 0.00 in
12:04 64.8 °F 44.1 °F 30.18 in SE 7.0 mph 11.0 mph 47 % 0.00 in
12:09 64.9 °F 43.7 °F 30.18 in SSE 6.0 mph 11.0 mph 46 % 0.00 in
12:16 65.5 °F 44.8 °F 30.18 in SSW 3.0 mph 10.0 mph 47 % 0.00 in
12:21 65.5 °F 45.3 °F 30.17 in SE 6.0 mph 11.0 mph 48 % 0.00 in
12:26 65.7 °F 46.0 °F 30.17 in SSW 7.0 mph 11.0 mph 49 % 0.00 in
12:31 65.8 °F 44.4 °F 30.17 in SE 6.0 mph 13.0 mph 46 % 0.00 in
12:36 65.8 °F 45.0 °F 30.16 in South 2.0 mph 13.0 mph 47 % 0.00 in
12:41 66.2 °F 44.8 °F 30.16 in ESE 3.0 mph 13.0 mph 46 % 0.00 in
12:46 66.0 °F 44.1 °F 30.15 in SW 4.0 mph 12.0 mph 45 % 0.00 in
12:51 66.0 °F 44.6 °F 30.15 in SE 4.0 mph 10.0 mph 46 % 0.00 in
12:56 65.8 °F 45.0 °F 30.14 in SW 1.0 mph 10.0 mph 47 % 0.00 in
12:57 65.8 °F 45.0 °F 30.14 in Calm   10.0 mph 47 % 0.00 in
13:12 66.2 °F 45.3 °F 30.13 in SSE 4.0 mph 10.0 mph 47 % 0.00 in
13:17 66.4 °F 45.5 °F 30.12 in SSW 5.0 mph 10.0 mph 47 % 0.00 in
13:22 66.6 °F 46.2 °F 30.12 in South 4.0 mph 10.0 mph 48 % 0.00 in
13:37 66.6 °F 46.2 °F 30.11 in SSE 3.0 mph 11.0 mph 48 % 0.00 in
13:42 66.9 °F 46.6 °F 30.11 in SE 5.0 mph 11.0 mph 48 % 0.00 in
13:47 67.1 °F 46.8 °F 30.11 in SSW 7.0 mph 11.0 mph 48 % 0.00 in
13:52 67.5 °F 46.6 °F 30.11 in SSE 9.0 mph 9.0 mph 47 % 0.00 in
13:57 67.3 °F 46.4 °F 30.10 in SSW 3.0 mph 9.0 mph 47 % 0.00 in
14:02 67.3 °F 46.9 °F 30.09 in ESE 2.0 mph 9.0 mph 48 % 0.00 in
14:07 67.6 °F 46.8 °F 30.09 in SSE 2.0 mph 9.0 mph 47 % 0.00 in
14:12 67.8 °F 48.0 °F 30.09 in ESE 5.0 mph 8.0 mph 49 % 0.00 in
14:27 68.4 °F 47.8 °F 30.08 in SSE 3.0 mph 10.0 mph 48 % 0.00 in
14:32 68.2 °F 47.7 °F 30.08 in SW 1.0 mph 10.0 mph 48 % 0.00 in
14:37 68.4 °F 48.4 °F 30.08 in SE 4.0 mph 9.0 mph 49 % 0.00 in
14:42 68.4 °F 48.9 °F 30.07 in Calm   9.0 mph 50 % 0.00 in
14:47 68.5 °F 48.6 °F 30.07 in South 8.0 mph 9.0 mph 49 % 0.00 in
14:52 68.5 °F 48.6 °F 30.07 in East 4.0 mph 8.0 mph 49 % 0.00 in
14:57 68.4 °F 48.4 °F 30.06 in SSW 2.0 mph 9.0 mph 49 % 0.00 in
15:02 68.4 °F 48.9 °F 30.06 in SE 4.0 mph 9.0 mph 50 % 0.00 in
15:12 68.2 °F 48.9 °F 30.06 in SE 4.0 mph 10.0 mph 50 % 0.00 in
15:17 68.2 °F 49.3 °F 30.06 in SSE 6.0 mph 10.0 mph 51 % 0.00 in
15:22 68.2 °F 48.9 °F 30.05 in SE 1.0 mph 10.0 mph 50 % 0.00 in
15:27 67.8 °F 48.6 °F 30.05 in SE 9.0 mph 10.0 mph 50 % 0.00 in
15:32 67.8 °F 49.1 °F 30.05 in SE 5.0 mph 11.0 mph 51 % 0.00 in
15:37 67.8 °F 49.1 °F 30.05 in SE 4.0 mph 11.0 mph 51 % 0.00 in
15:42 67.6 °F 48.9 °F 30.05 in South 5.0 mph 11.0 mph 51 % 0.00 in
15:47 67.5 °F 49.3 °F 30.05 in SE 4.0 mph 10.0 mph 52 % 0.00 in
16:02 66.7 °F 49.6 °F 30.04 in SSE 1.0 mph 11.0 mph 54 % 0.00 in
16:12 66.6 °F 49.5 °F 30.05 in SSW 5.0 mph 9.0 mph 54 % 0.00 in
16:17 66.4 °F 49.6 °F 30.04 in SSE 6.0 mph 8.0 mph 55 % 0.00 in
16:22 66.0 °F 48.9 °F 30.04 in SSE 5.0 mph 8.0 mph 54 % 0.00 in
16:27 65.8 °F 49.3 °F 30.04 in SW 6.0 mph 9.0 mph 55 % 0.00 in
16:37 65.5 °F 49.3 °F 30.04 in SSE 3.0 mph 9.0 mph 56 % 0.00 in
16:43 65.5 °F 49.3 °F 30.05 in ESE 3.0 mph 9.0 mph 56 % 0.00 in
16:48 65.1 °F 49.1 °F 30.05 in ESE 5.0 mph 9.0 mph 56 % 0.00 in
16:53 65.1 °F 49.5 °F 30.05 in SSW 4.0 mph 8.0 mph 57 % 0.00 in
17:08 64.4 °F 49.3 °F 30.05 in SE 5.0 mph 7.0 mph 58 % 0.00 in
17:13 64.0 °F 49.5 °F 30.05 in SE 1.0 mph 7.0 mph 59 % 0.00 in
17:18 63.9 °F 49.3 °F 30.05 in South 2.0 mph 7.0 mph 59 % 0.00 in
17:23 63.3 °F 49.3 °F 30.05 in ESE 1.0 mph 6.0 mph 60 % 0.00 in
17:33 63.0 °F 49.8 °F 30.05 in SSE 1.0 mph 5.0 mph 62 % 0.00 in
17:38 62.4 °F 49.6 °F 30.05 in Calm   5.0 mph 63 % 0.00 in
17:43 62.2 °F 50.4 °F 30.05 in SSE 2.0 mph 5.0 mph 65 % 0.00 in
17:48 61.9 °F 50.4 °F 30.05 in Calm   6.0 mph 66 % 0.00 in
17:53 61.5 °F 50.5 °F 30.05 in SSE 6.0 mph 6.0 mph 67 % 0.00 in
17:58 61.2 °F 50.5 °F 30.05 in SE 2.0 mph 8.0 mph 68 % 0.00 in
18:08 60.6 °F 50.4 °F 30.05 in SE 2.0 mph 9.0 mph 69 % 0.00 in
18:18 60.1 °F 50.2 °F 30.05 in SE 4.0 mph 6.0 mph 70 % 0.00 in
18:28 59.9 °F 50.5 °F 30.05 in SSE 1.0 mph 7.0 mph 71 % 0.00 in
18:29 59.9 °F 50.5 °F 30.05 in SE 1.0 mph 7.0 mph 71 % 0.00 in
18:31 59.7 °F 50.7 °F 30.05 in Calm   7.0 mph 72 % 0.00 in
18:32 59.7 °F 50.7 °F 30.06 in Calm   7.0 mph 72 % 0.00 in
18:37 59.5 °F 50.5 °F 30.06 in Calm   6.0 mph 72 % 0.00 in
18:39 59.5 °F 50.5 °F 30.06 in SE 4.0 mph 6.0 mph 72 % 0.00 in
18:49 59.4 °F 50.7 °F 30.05 in Calm   7.0 mph 73 % 0.00 in
18:54 59.2 °F 50.9 °F 30.05 in ESE 3.0 mph 7.0 mph 74 % 0.00 in
18:59 59.0 °F 50.7 °F 30.05 in SE 1.0 mph 7.0 mph 74 % 0.00 in
19:04 58.8 °F 50.9 °F 30.05 in SE 1.0 mph 6.0 mph 75 % 0.00 in
19:09 58.8 °F 50.9 °F 30.05 in SSE 2.0 mph 6.0 mph 75 % 0.00 in
19:14 58.6 °F 51.1 °F 30.05 in ESE 1.0 mph 6.0 mph 76 % 0.00 in
19:19 58.6 °F 51.1 °F 30.04 in East 2.0 mph 6.0 mph 76 % 0.00 in
19:24 58.5 °F 50.9 °F 30.04 in SE 1.0 mph 6.0 mph 76 % 0.00 in
19:29 58.5 °F 50.9 °F 30.05 in SE 1.0 mph 6.0 mph 76 % 0.00 in
19:35 58.3 °F 50.7 °F 30.05 in South 2.0 mph 5.0 mph 76 % 0.00 in
19:40 58.1 °F 50.9 °F 30.04 in East 1.0 mph 3.0 mph 77 % 0.00 in
19:45 58.1 °F 50.9 °F 30.05 in SE 1.0 mph 4.0 mph 77 % 0.00 in
19:50 57.9 °F 50.7 °F 30.04 in SSW 1.0 mph 4.0 mph 77 % 0.00 in
19:55 57.9 °F 50.7 °F 30.04 in SSE 2.0 mph 6.0 mph 77 % 0.00 in
20:00 57.7 °F 50.5 °F 30.05 in East 3.0 mph 6.0 mph 77 % 0.00 in
20:05 57.7 °F 50.9 °F 30.05 in SSE 1.0 mph 6.0 mph 78 % 0.00 in
20:10 57.7 °F 50.9 °F 30.05 in Calm   5.0 mph 78 % 0.00 in
20:20 57.4 °F 50.5 °F 30.04 in ESE 2.0 mph 4.0 mph 78 % 0.00 in
20:25 57.4 °F 50.9 °F 30.04 in SE 1.0 mph 3.0 mph 79 % 0.00 in
20:31 57.2 °F 50.7 °F 30.04 in Calm   3.0 mph 79 % 0.00 in
20:36 57.0 °F 50.5 °F 30.04 in Calm   3.0 mph 79 % 0.00 in
20:41 56.8 °F 50.7 °F 30.04 in SE 2.0 mph 4.0 mph 80 % 0.00 in
20:46 56.7 °F 50.5 °F 30.04 in Calm   4.0 mph 80 % 0.00 in
20:51 56.7 °F 50.5 °F 30.04 in ESE 1.0 mph 4.0 mph 80 % 0.00 in
21:01 56.3 °F 50.5 °F 30.04 in SE 1.0 mph 4.0 mph 81 % 0.00 in
21:06 56.3 °F 50.5 °F 30.03 in ESE 2.0 mph 4.0 mph 81 % 0.00 in
21:14 56.1 °F 50.4 °F 30.04 in SE 1.0 mph 3.0 mph 81 % 0.00 in
21:19 55.9 °F 50.2 °F 30.04 in ESE 2.0 mph 4.0 mph 81 % 0.00 in
21:24 55.9 °F 50.2 °F 30.04 in Calm   4.0 mph 81 % 0.00 in
21:27 55.8 °F 50.0 °F 30.04 in Calm   4.0 mph 81 % 0.00 in
21:32 55.8 °F 50.0 °F 30.03 in Calm   2.0 mph 81 % 0.00 in
21:42 55.4 °F 50.0 °F 30.03 in Calm   2.0 mph 82 % 0.00 in
21:47 55.2 °F 49.8 °F 30.03 in Calm   2.0 mph 82 % 0.00 in
21:52 55.0 °F 49.6 °F 30.03 in SE 1.0 mph 2.0 mph 82 % 0.00 in
22:02 54.9 °F 49.8 °F 30.02 in Calm   1.0 mph 83 % 0.00 in
22:11 54.7 °F 49.6 °F 30.02 in Calm   2.0 mph 83 % 0.00 in
22:16 54.7 °F 49.6 °F 30.02 in SE 1.0 mph 2.0 mph 83 % 0.00 in
22:21 54.5 °F 49.5 °F 30.02 in Calm   2.0 mph 83 % 0.00 in
22:26 54.5 °F 49.5 °F 30.01 in Calm   2.0 mph 83 % 0.00 in
22:36 54.1 °F 49.1 °F 30.02 in Calm   1.0 mph 83 % 0.00 in
22:46 53.4 °F 48.7 °F 30.02 in Calm     84 % 0.00 in
22:51 53.2 °F 48.9 °F 30.02 in Calm     85 % 0.00 in
22:56 53.2 °F 48.9 °F 30.02 in Calm   1.0 mph 85 % 0.00 in
23:01 53.1 °F 48.9 °F 30.02 in Calm   1.0 mph 86 % 0.00 in
23:11 52.5 °F 48.7 °F 30.02 in Calm     87 % 0.00 in
23:16 52.5 °F 48.7 °F 30.02 in Calm   1.0 mph 87 % 0.00 in
23:22 52.3 °F 48.6 °F 30.02 in SE 1.0 mph 1.0 mph 87 % 0.00 in
23:27 52.2 °F 48.7 °F 30.02 in Calm   1.0 mph 88 % 0.00 in
23:32 52.0 °F 48.6 °F 30.01 in Calm   1.0 mph 88 % 0.00 in
23:42 51.4 °F 48.0 °F 30.01 in Calm     88 % 0.00 in
23:49 51.3 °F 47.8 °F 30.01 in Calm     88 % 0.00 in
23:56 51.1 °F 48.0 °F 30.01 in Calm     89 % 0.00 in
Spring, Texas: Villages of Bridgestone
Compliments of Weather Underground - 2.5 mb

Script developed by  Jim McMurry - jmcmurry@mwt.net Adapted for the template by  Wim van der Kuil - Leuven-Template.eu

You find our weather info also at:

UK Metoffice

WeatherCloud

Weather Underground

Mid-South Weather Network

AWEKAS

Citizen Weather Observer Program (CWOP)

HAMweather, WeatherForYou, PWS Weather

Equipment we use:

Weather-station
Davis Vantage Vue

Weather-program
Meteohub

Weather-server
Debian 7.9 x86 (Guest)

Provider
DreamHost

Davis Vantage Vue

Meteohub

Debian 7.9 x86 (Guest)

DreamHost